Aérodrome :
LOGIN :

S'inscrire | Disclaimer

   EN    FR    IT 

 










Légende :    VFR   VFR Marginal   IFR   IFR Intensif   IFR Très Intensif
Visi : 
Plafond : 
>= 8 km
>= 3000ft
5 à 8 km
1000 à 3000 ft
1500m à 5 km
500 à 1000 ft
800 à 1500m
200 à 500 ft
< 800m
< 200 ft
Symboles :   Orages  Brouillard  Fortes neiges  Fortes précipitations  Vent > 20 kt
SIGMETs :   Divers  Orages  Givrage  Turbulence  Onde Orograph.  Cendres Volcan.






- Altitude de l'aérodrome : 340 ft
- Code IATA : BZI


LTBF - Balikesir

DERNIER METAR :
  • 051550Z 36009KT 9999 SCT035 07/03 Q1027 NOSIG

METARs EXPIRÉS :
  • 051450Z 01011KT 9999 SCT035 08/03 Q1027 NOSIG
  • 051350Z 02013KT 9999 SCT035 09/04 Q1027 NOSIG

TAF TAF LTBF
Valide du 05 à 15h jusqu'au 06 à 00h UTC


051340Z 0515/0524 01012KT 9999 SCT035
BECMG 0517/0520 CAVOK



MET'MAP, la Météo Aéronautique d'un coup d'oeil ! - Copyright ORBIFLY Décembre 2007 - Disclaimer

ORBIFLY MET'MAP TEAM :

Programmation & Développement : Alexandra Zaïnal
Sur une idée originale de : Baudouin d'Aumeries
Assistance à la programmation : Marc-Olivier Méhu
Soutien technique & logistique : Manuel Goepfert

Contact : metmap@orbifly.com




SOURCES & CREDITS :

   NOAA